sensor_id;sensor_type;location;lat;lon;timestamp;P1;durP1;ratioP1;P2;durP2;ratioP2
34359;SDS011;20624;55.870;26.506;2022-11-23T00:01:17;3.28;;;0.70;;
34359;SDS011;20624;55.870;26.506;2022-11-23T00:03:46;3.67;;;0.70;;
34359;SDS011;20624;55.870;26.506;2022-11-23T00:06:15;2.08;;;0.70;;
34359;SDS011;20624;55.870;26.506;2022-11-23T00:08:43;3.13;;;0.88;;
34359;SDS011;20624;55.870;26.506;2022-11-23T00:11:10;1.88;;;0.55;;
34359;SDS011;20624;55.870;26.506;2022-11-23T00:13:39;3.10;;;1.00;;
34359;SDS011;20624;55.870;26.506;2022-11-23T00:16:07;3.40;;;0.80;;
34359;SDS011;20624;55.870;26.506;2022-11-23T00:18:36;3.92;;;0.90;;
34359;SDS011;20624;55.870;26.506;2022-11-23T00:21:11;2.35;;;0.70;;
34359;SDS011;20624;55.870;26.506;2022-11-23T00:23:43;1.45;;;0.60;;
34359;SDS011;20624;55.870;26.506;2022-11-23T00:26:11;2.38;;;0.70;;
34359;SDS011;20624;55.870;26.506;2022-11-23T00:28:39;3.35;;;0.82;;
34359;SDS011;20624;55.870;26.506;2022-11-23T00:31:11;2.63;;;0.70;;
34359;SDS011;20624;55.870;26.506;2022-11-23T00:33:41;2.40;;;0.85;;
34359;SDS011;20624;55.870;26.506;2022-11-23T00:36:10;2.70;;;0.70;;
34359;SDS011;20624;55.870;26.506;2022-11-23T00:38:39;2.45;;;0.70;;
34359;SDS011;20624;55.870;26.506;2022-11-23T00:41:11;3.60;;;0.77;;
34359;SDS011;20624;55.870;26.506;2022-11-23T00:43:39;2.47;;;0.70;;
34359;SDS011;20624;55.870;26.506;2022-11-23T00:46:20;2.92;;;0.60;;
34359;SDS011;20624;55.870;26.506;2022-11-23T00:48:49;2.80;;;0.85;;
34359;SDS011;20624;55.870;26.506;2022-11-23T00:51:20;3.80;;;0.80;;
34359;SDS011;20624;55.870;26.506;2022-11-23T00:53:50;2.42;;;0.73;;
34359;SDS011;20624;55.870;26.506;2022-11-23T00:56:18;1.30;;;0.47;;
34359;SDS011;20624;55.870;26.506;2022-11-23T00:58:49;4.43;;;1.10;;
34359;SDS011;20624;55.870;26.506;2022-11-23T01:01:18;2.63;;;0.90;;
34359;SDS011;20624;55.870;26.506;2022-11-23T01:03:48;4.00;;;1.23;;
34359;SDS011;20624;55.870;26.506;2022-11-23T01:06:18;2.00;;;0.70;;
34359;SDS011;20624;55.870;26.506;2022-11-23T01:08:52;2.45;;;0.80;;
34359;SDS011;20624;55.870;26.506;2022-11-23T01:11:20;2.20;;;0.50;;
34359;SDS011;20624;55.870;26.506;2022-11-23T01:13:48;1.63;;;0.60;;
34359;SDS011;20624;55.870;26.506;2022-11-23T01:16:18;2.63;;;0.70;;
34359;SDS011;20624;55.870;26.506;2022-11-23T01:18:56;2.88;;;0.70;;
34359;SDS011;20624;55.870;26.506;2022-11-23T01:21:30;5.32;;;1.08;;
34359;SDS011;20624;55.870;26.506;2022-11-23T01:23:58;1.42;;;0.50;;
34359;SDS011;20624;55.870;26.506;2022-11-23T01:26:26;2.55;;;0.75;;
34359;SDS011;20624;55.870;26.506;2022-11-23T01:28:54;2.85;;;0.90;;
34359;SDS011;20624;55.870;26.506;2022-11-23T01:31:22;1.27;;;0.55;;
34359;SDS011;20624;55.870;26.506;2022-11-23T01:33:54;3.05;;;1.00;;
34359;SDS011;20624;55.870;26.506;2022-11-23T01:36:27;2.92;;;0.75;;
34359;SDS011;20624;55.870;26.506;2022-11-23T01:38:58;2.78;;;0.75;;
34359;SDS011;20624;55.870;26.506;2022-11-23T01:41:29;3.35;;;0.80;;
34359;SDS011;20624;55.870;26.506;2022-11-23T01:43:58;2.72;;;0.88;;
34359;SDS011;20624;55.870;26.506;2022-11-23T01:46:26;2.63;;;0.65;;
34359;SDS011;20624;55.870;26.506;2022-11-23T01:48:55;5.38;;;1.13;;
34359;SDS011;20624;55.870;26.506;2022-11-23T01:51:37;2.13;;;0.82;;
34359;SDS011;20624;55.870;26.506;2022-11-23T01:54:17;2.15;;;0.65;;
34359;SDS011;20624;55.870;26.506;2022-11-23T01:56:58;2.15;;;0.63;;
34359;SDS011;20624;55.870;26.506;2022-11-23T01:59:29;1.90;;;0.60;;
34359;SDS011;20624;55.870;26.506;2022-11-23T02:01:59;1.38;;;0.52;;
34359;SDS011;20624;55.870;26.506;2022-11-23T02:04:31;3.15;;;0.70;;
34359;SDS011;20624;55.870;26.506;2022-11-23T02:07:02;1.77;;;0.60;;
34359;SDS011;20624;55.870;26.506;2022-11-23T02:09:30;13.93;;;1.95;;
34359;SDS011;20624;55.870;26.506;2022-11-23T02:11:59;2.38;;;0.80;;
34359;SDS011;20624;55.870;26.506;2022-11-23T02:14:27;2.00;;;0.80;;
34359;SDS011;20624;55.870;26.506;2022-11-23T02:16:59;1.55;;;0.70;;
34359;SDS011;20624;55.870;26.506;2022-11-23T02:22:05;1.55;;;0.50;;
34359;SDS011;20624;55.870;26.506;2022-11-23T02:24:44;1.70;;;0.70;;
34359;SDS011;20624;55.870;26.506;2022-11-23T02:27:17;2.70;;;0.95;;
34359;SDS011;20624;55.870;26.506;2022-11-23T02:29:46;2.80;;;0.80;;
34359;SDS011;20624;55.870;26.506;2022-11-23T02:32:23;2.38;;;0.75;;
34359;SDS011;20624;55.870;26.506;2022-11-23T02:34:51;2.85;;;0.70;;
34359;SDS011;20624;55.870;26.506;2022-11-23T02:37:19;2.80;;;0.85;;
34359;SDS011;20624;55.870;26.506;2022-11-23T02:39:50;2.42;;;0.70;;
34359;SDS011;20624;55.870;26.506;2022-11-23T02:42:19;2.10;;;0.45;;
34359;SDS011;20624;55.870;26.506;2022-11-23T02:47:47;3.17;;;0.80;;
34359;SDS011;20624;55.870;26.506;2022-11-23T02:50:15;2.22;;;0.50;;
34359;SDS011;20624;55.870;26.506;2022-11-23T02:52:44;1.95;;;0.63;;
34359;SDS011;20624;55.870;26.506;2022-11-23T02:55:11;2.47;;;0.80;;
34359;SDS011;20624;55.870;26.506;2022-11-23T02:57:39;4.90;;;0.95;;
34359;SDS011;20624;55.870;26.506;2022-11-23T03:00:07;2.25;;;0.70;;
34359;SDS011;20624;55.870;26.506;2022-11-23T03:02:36;2.28;;;0.60;;
34359;SDS011;20624;55.870;26.506;2022-11-23T03:05:04;2.28;;;0.68;;
34359;SDS011;20624;55.870;26.506;2022-11-23T03:07:32;4.15;;;0.82;;
34359;SDS011;20624;55.870;26.506;2022-11-23T03:09:59;2.63;;;0.88;;
34359;SDS011;20624;55.870;26.506;2022-11-23T03:12:27;1.88;;;0.57;;
34359;SDS011;20624;55.870;26.506;2022-11-23T03:14:55;1.83;;;0.50;;
34359;SDS011;20624;55.870;26.506;2022-11-23T03:17:22;4.30;;;1.00;;
34359;SDS011;20624;55.870;26.506;2022-11-23T03:19:50;1.98;;;0.60;;
34359;SDS011;20624;55.870;26.506;2022-11-23T03:22:18;2.13;;;0.60;;
34359;SDS011;20624;55.870;26.506;2022-11-23T03:24:46;1.27;;;0.43;;
34359;SDS011;20624;55.870;26.506;2022-11-23T03:27:14;1.95;;;0.70;;
34359;SDS011;20624;55.870;26.506;2022-11-23T03:29:41;1.05;;;0.50;;
34359;SDS011;20624;55.870;26.506;2022-11-23T03:32:09;2.40;;;0.75;;
34359;SDS011;20624;55.870;26.506;2022-11-23T03:34:37;2.83;;;0.80;;
34359;SDS011;20624;55.870;26.506;2022-11-23T03:37:05;1.77;;;0.70;;
34359;SDS011;20624;55.870;26.506;2022-11-23T03:39:32;2.80;;;0.90;;
34359;SDS011;20624;55.870;26.506;2022-11-23T03:42:00;3.60;;;0.75;;
34359;SDS011;20624;55.870;26.506;2022-11-23T03:44:28;2.25;;;0.73;;
34359;SDS011;20624;55.870;26.506;2022-11-23T03:46:55;3.72;;;1.08;;
34359;SDS011;20624;55.870;26.506;2022-11-23T03:49:23;3.20;;;0.70;;
34359;SDS011;20624;55.870;26.506;2022-11-23T03:51:51;1.80;;;0.60;;
34359;SDS011;20624;55.870;26.506;2022-11-23T03:54:22;2.88;;;0.70;;
34359;SDS011;20624;55.870;26.506;2022-11-23T03:56:49;1.00;;;0.40;;
34359;SDS011;20624;55.870;26.506;2022-11-23T03:59:17;1.70;;;0.60;;
34359;SDS011;20624;55.870;26.506;2022-11-23T04:01:44;2.95;;;0.77;;
34359;SDS011;20624;55.870;26.506;2022-11-23T04:04:12;3.15;;;0.80;;
34359;SDS011;20624;55.870;26.506;2022-11-23T04:06:40;2.33;;;0.70;;
34359;SDS011;20624;55.870;26.506;2022-11-23T04:09:07;2.05;;;0.68;;
34359;SDS011;20624;55.870;26.506;2022-11-23T04:11:37;2.53;;;0.63;;
34359;SDS011;20624;55.870;26.506;2022-11-23T04:14:05;8.18;;;1.35;;
34359;SDS011;20624;55.870;26.506;2022-11-23T04:16:35;1.75;;;0.45;;
34359;SDS011;20624;55.870;26.506;2022-11-23T04:19:03;2.95;;;0.70;;
34359;SDS011;20624;55.870;26.506;2022-11-23T04:21:30;4.80;;;0.88;;
34359;SDS011;20624;55.870;26.506;2022-11-23T04:23:58;1.35;;;0.50;;
34359;SDS011;20624;55.870;26.506;2022-11-23T04:26:26;9.32;;;1.73;;
34359;SDS011;20624;55.870;26.506;2022-11-23T04:28:53;5.38;;;0.90;;
34359;SDS011;20624;55.870;26.506;2022-11-23T04:31:21;0.93;;;0.40;;
34359;SDS011;20624;55.870;26.506;2022-11-23T04:33:48;5.05;;;1.05;;
34359;SDS011;20624;55.870;26.506;2022-11-23T04:36:16;1.75;;;0.60;;
34359;SDS011;20624;55.870;26.506;2022-11-23T04:38:44;2.17;;;0.73;;
34359;SDS011;20624;55.870;26.506;2022-11-23T04:41:11;4.05;;;0.90;;
34359;SDS011;20624;55.870;26.506;2022-11-23T04:43:39;2.65;;;0.70;;
34359;SDS011;20624;55.870;26.506;2022-11-23T04:46:08;15.57;;;2.25;;
34359;SDS011;20624;55.870;26.506;2022-11-23T04:48:36;6.63;;;1.20;;
34359;SDS011;20624;55.870;26.506;2022-11-23T04:51:04;2.72;;;0.73;;
34359;SDS011;20624;55.870;26.506;2022-11-23T04:53:32;2.70;;;0.65;;
34359;SDS011;20624;55.870;26.506;2022-11-23T04:56:00;1.35;;;0.70;;
34359;SDS011;20624;55.870;26.506;2022-11-23T04:58:28;3.25;;;0.70;;
34359;SDS011;20624;55.870;26.506;2022-11-23T05:01:00;10.18;;;1.77;;
34359;SDS011;20624;55.870;26.506;2022-11-23T05:03:27;2.85;;;0.63;;
34359;SDS011;20624;55.870;26.506;2022-11-23T05:06:00;2.90;;;0.90;;
34359;SDS011;20624;55.870;26.506;2022-11-23T05:08:28;6.10;;;1.10;;
34359;SDS011;20624;55.870;26.506;2022-11-23T05:10:56;2.58;;;0.55;;
34359;SDS011;20624;55.870;26.506;2022-11-23T05:13:24;8.35;;;1.33;;
34359;SDS011;20624;55.870;26.506;2022-11-23T05:15:51;7.80;;;1.30;;
34359;SDS011;20624;55.870;26.506;2022-11-23T05:18:19;2.38;;;0.60;;
34359;SDS011;20624;55.870;26.506;2022-11-23T05:20:46;4.05;;;0.77;;
34359;SDS011;20624;55.870;26.506;2022-11-23T05:23:14;2.90;;;0.75;;
34359;SDS011;20624;55.870;26.506;2022-11-23T05:25:43;2.92;;;0.77;;
34359;SDS011;20624;55.870;26.506;2022-11-23T05:28:13;2.33;;;0.60;;
34359;SDS011;20624;55.870;26.506;2022-11-23T05:31:04;4.72;;;1.02;;
34359;SDS011;20624;55.870;26.506;2022-11-23T05:33:32;6.00;;;1.20;;
34359;SDS011;20624;55.870;26.506;2022-11-23T05:36:00;11.32;;;1.77;;
34359;SDS011;20624;55.870;26.506;2022-11-23T05:38:27;5.55;;;0.90;;
34359;SDS011;20624;55.870;26.506;2022-11-23T05:40:55;13.38;;;2.00;;
34359;SDS011;20624;55.870;26.506;2022-11-23T05:43:22;11.85;;;1.70;;
34359;SDS011;20624;55.870;26.506;2022-11-23T05:45:50;14.25;;;2.22;;
34359;SDS011;20624;55.870;26.506;2022-11-23T05:48:18;15.52;;;2.35;;
34359;SDS011;20624;55.870;26.506;2022-11-23T05:50:48;15.75;;;2.47;;
34359;SDS011;20624;55.870;26.506;2022-11-23T05:53:16;25.27;;;3.55;;
34359;SDS011;20624;55.870;26.506;2022-11-23T05:55:44;23.80;;;3.45;;
34359;SDS011;20624;55.870;26.506;2022-11-23T05:58:11;13.77;;;2.22;;
34359;SDS011;20624;55.870;26.506;2022-11-23T06:00:39;37.38;;;5.25;;
34359;SDS011;20624;55.870;26.506;2022-11-23T06:03:07;51.88;;;7.35;;
34359;SDS011;20624;55.870;26.506;2022-11-23T06:05:34;24.67;;;3.33;;
34359;SDS011;20624;55.870;26.506;2022-11-23T06:08:02;16.60;;;2.30;;
34359;SDS011;20624;55.870;26.506;2022-11-23T06:10:30;50.85;;;7.07;;
34359;SDS011;20624;55.870;26.506;2022-11-23T06:13:01;30.08;;;4.43;;
34359;SDS011;20624;55.870;26.506;2022-11-23T06:15:30;32.05;;;4.70;;
34359;SDS011;20624;55.870;26.506;2022-11-23T06:17:58;31.42;;;4.35;;
34359;SDS011;20624;55.870;26.506;2022-11-23T06:20:28;27.38;;;4.03;;
34359;SDS011;20624;55.870;26.506;2022-11-23T06:22:56;38.63;;;5.55;;
34359;SDS011;20624;55.870;26.506;2022-11-23T06:25:24;24.92;;;3.63;;
34359;SDS011;20624;55.870;26.506;2022-11-23T06:27:53;14.90;;;2.38;;
34359;SDS011;20624;55.870;26.506;2022-11-23T06:30:21;37.75;;;5.03;;
34359;SDS011;20624;55.870;26.506;2022-11-23T06:32:49;15.98;;;2.38;;
34359;SDS011;20624;55.870;26.506;2022-11-23T06:35:16;66.30;;;8.88;;
34359;SDS011;20624;55.870;26.506;2022-11-23T06:37:46;48.92;;;6.65;;
34359;SDS011;20624;55.870;26.506;2022-11-23T06:40:14;38.75;;;5.15;;
34359;SDS011;20624;55.870;26.506;2022-11-23T06:42:42;74.50;;;10.18;;
34359;SDS011;20624;55.870;26.506;2022-11-23T06:45:09;40.40;;;5.57;;
34359;SDS011;20624;55.870;26.506;2022-11-23T06:47:37;34.47;;;4.75;;
34359;SDS011;20624;55.870;26.506;2022-11-23T06:50:05;39.72;;;5.30;;
34359;SDS011;20624;55.870;26.506;2022-11-23T06:52:32;38.33;;;5.25;;
34359;SDS011;20624;55.870;26.506;2022-11-23T06:55:00;48.67;;;6.53;;
34359;SDS011;20624;55.870;26.506;2022-11-23T06:57:28;29.85;;;4.20;;
34359;SDS011;20624;55.870;26.506;2022-11-23T06:59:56;55.10;;;7.28;;
34359;SDS011;20624;55.870;26.506;2022-11-23T07:02:23;43.22;;;6.18;;
34359;SDS011;20624;55.870;26.506;2022-11-23T07:04:51;32.13;;;4.47;;
34359;SDS011;20624;55.870;26.506;2022-11-23T07:07:19;31.67;;;4.45;;
34359;SDS011;20624;55.870;26.506;2022-11-23T07:09:47;35.58;;;4.78;;
34359;SDS011;20624;55.870;26.506;2022-11-23T07:12:14;50.42;;;6.82;;
34359;SDS011;20624;55.870;26.506;2022-11-23T07:14:42;31.20;;;4.45;;
34359;SDS011;20624;55.870;26.506;2022-11-23T07:17:10;43.88;;;5.90;;
34359;SDS011;20624;55.870;26.506;2022-11-23T07:19:42;37.50;;;5.38;;
34359;SDS011;20624;55.870;26.506;2022-11-23T07:22:10;44.33;;;6.05;;
34359;SDS011;20624;55.870;26.506;2022-11-23T07:24:39;28.25;;;3.92;;
34359;SDS011;20624;55.870;26.506;2022-11-23T07:27:12;31.42;;;4.60;;
34359;SDS011;20624;55.870;26.506;2022-11-23T07:29:40;51.90;;;7.00;;
34359;SDS011;20624;55.870;26.506;2022-11-23T07:32:07;39.50;;;5.65;;
34359;SDS011;20624;55.870;26.506;2022-11-23T07:34:40;41.97;;;5.80;;
34359;SDS011;20624;55.870;26.506;2022-11-23T07:37:07;43.10;;;5.93;;
34359;SDS011;20624;55.870;26.506;2022-11-23T07:39:35;29.38;;;4.18;;
34359;SDS011;20624;55.870;26.506;2022-11-23T07:42:22;49.72;;;6.75;;
34359;SDS011;20624;55.870;26.506;2022-11-23T07:45:03;46.92;;;6.22;;
34359;SDS011;20624;55.870;26.506;2022-11-23T07:47:30;49.92;;;6.60;;
34359;SDS011;20624;55.870;26.506;2022-11-23T07:49:58;41.13;;;5.75;;
34359;SDS011;20624;55.870;26.506;2022-11-23T07:52:26;49.70;;;6.65;;
34359;SDS011;20624;55.870;26.506;2022-11-23T07:54:54;31.90;;;4.30;;
34359;SDS011;20624;55.870;26.506;2022-11-23T07:57:21;29.67;;;4.28;;
34359;SDS011;20624;55.870;26.506;2022-11-23T07:59:49;34.97;;;4.90;;
34359;SDS011;20624;55.870;26.506;2022-11-23T08:02:17;33.28;;;4.65;;
34359;SDS011;20624;55.870;26.506;2022-11-23T08:04:44;38.22;;;5.22;;
34359;SDS011;20624;55.870;26.506;2022-11-23T08:07:12;44.78;;;6.13;;
34359;SDS011;20624;55.870;26.506;2022-11-23T08:09:40;32.38;;;4.50;;
34359;SDS011;20624;55.870;26.506;2022-11-23T08:12:08;37.00;;;5.00;;
34359;SDS011;20624;55.870;26.506;2022-11-23T08:14:36;50.97;;;6.75;;
34359;SDS011;20624;55.870;26.506;2022-11-23T08:17:04;28.77;;;4.18;;
34359;SDS011;20624;55.870;26.506;2022-11-23T08:19:31;50.65;;;6.93;;
34359;SDS011;20624;55.870;26.506;2022-11-23T08:21:59;32.83;;;4.35;;
34359;SDS011;20624;55.870;26.506;2022-11-23T08:24:27;36.35;;;5.15;;
34359;SDS011;20624;55.870;26.506;2022-11-23T08:26:55;20.98;;;3.10;;
34359;SDS011;20624;55.870;26.506;2022-11-23T08:29:23;22.10;;;3.20;;
34359;SDS011;20624;55.870;26.506;2022-11-23T08:31:51;50.03;;;6.78;;
34359;SDS011;20624;55.870;26.506;2022-11-23T08:34:19;48.38;;;6.45;;
34359;SDS011;20624;55.870;26.506;2022-11-23T08:36:47;62.28;;;8.40;;
34359;SDS011;20624;55.870;26.506;2022-11-23T08:39:15;56.78;;;7.63;;
34359;SDS011;20624;55.870;26.506;2022-11-23T08:41:44;28.48;;;4.03;;
34359;SDS011;20624;55.870;26.506;2022-11-23T08:44:12;55.80;;;7.30;;
34359;SDS011;20624;55.870;26.506;2022-11-23T08:46:40;40.95;;;5.57;;
34359;SDS011;20624;55.870;26.506;2022-11-23T08:49:08;58.03;;;7.43;;
34359;SDS011;20624;55.870;26.506;2022-11-23T08:51:36;28.55;;;3.75;;
34359;SDS011;20624;55.870;26.506;2022-11-23T08:54:04;49.45;;;6.53;;
34359;SDS011;20624;55.870;26.506;2022-11-23T08:56:32;43.63;;;6.07;;
34359;SDS011;20624;55.870;26.506;2022-11-23T08:58:59;18.13;;;2.83;;
34359;SDS011;20624;55.870;26.506;2022-11-23T09:01:28;53.38;;;7.15;;
34359;SDS011;20624;55.870;26.506;2022-11-23T09:03:56;79.68;;;10.57;;
34359;SDS011;20624;55.870;26.506;2022-11-23T09:06:23;62.30;;;8.63;;
34359;SDS011;20624;55.870;26.506;2022-11-23T09:08:54;37.42;;;5.10;;
34359;SDS011;20624;55.870;26.506;2022-11-23T09:11:22;36.63;;;4.95;;
34359;SDS011;20624;55.870;26.506;2022-11-23T09:13:54;40.28;;;5.35;;
34359;SDS011;20624;55.870;26.506;2022-11-23T09:16:22;47.92;;;6.53;;
34359;SDS011;20624;55.870;26.506;2022-11-23T09:18:56;50.30;;;6.65;;
34359;SDS011;20624;55.870;26.506;2022-11-23T09:21:23;33.30;;;4.63;;
34359;SDS011;20624;55.870;26.506;2022-11-23T09:23:56;39.50;;;5.53;;
34359;SDS011;20624;55.870;26.506;2022-11-23T09:26:24;37.72;;;5.03;;
34359;SDS011;20624;55.870;26.506;2022-11-23T09:28:52;46.38;;;6.35;;
34359;SDS011;20624;55.870;26.506;2022-11-23T09:31:20;59.08;;;8.20;;
34359;SDS011;20624;55.870;26.506;2022-11-23T09:33:51;23.17;;;3.35;;
34359;SDS011;20624;55.870;26.506;2022-11-23T09:38:50;39.95;;;5.38;;
34359;SDS011;20624;55.870;26.506;2022-11-23T09:46:56;54.58;;;7.22;;
34359;SDS011;20624;55.870;26.506;2022-11-23T09:49:57;38.55;;;5.28;;
34359;SDS011;20624;55.870;26.506;2022-11-23T09:52:35;41.95;;;5.72;;
34359;SDS011;20624;55.870;26.506;2022-11-23T09:55:30;31.67;;;4.30;;
34359;SDS011;20624;55.870;26.506;2022-11-23T09:58:04;49.03;;;6.35;;
34359;SDS011;20624;55.870;26.506;2022-11-23T10:00:40;44.60;;;6.25;;
34359;SDS011;20624;55.870;26.506;2022-11-23T10:03:14;39.90;;;5.30;;
34359;SDS011;20624;55.870;26.506;2022-11-23T10:05:46;34.78;;;4.65;;
34359;SDS011;20624;55.870;26.506;2022-11-23T10:14:42;44.47;;;6.22;;
34359;SDS011;20624;55.870;26.506;2022-11-23T10:20:35;12.10;;;2.00;;
34359;SDS011;20624;55.870;26.506;2022-11-23T10:23:12;22.52;;;3.08;;
34359;SDS011;20624;55.870;26.506;2022-11-23T10:26:12;35.55;;;4.82;;
34359;SDS011;20624;55.870;26.506;2022-11-23T10:28:42;28.02;;;3.97;;
34359;SDS011;20624;55.870;26.506;2022-11-23T10:31:13;23.20;;;3.17;;
34359;SDS011;20624;55.870;26.506;2022-11-23T10:36:37;38.50;;;5.22;;
34359;SDS011;20624;55.870;26.506;2022-11-23T10:41:52;41.30;;;5.82;;
34359;SDS011;20624;55.870;26.506;2022-11-23T10:44:27;50.20;;;6.63;;
34359;SDS011;20624;55.870;26.506;2022-11-23T10:46:58;33.55;;;4.55;;
34359;SDS011;20624;55.870;26.506;2022-11-23T10:49:26;34.80;;;4.90;;
34359;SDS011;20624;55.870;26.506;2022-11-23T10:51:57;27.50;;;4.15;;
34359;SDS011;20624;55.870;26.506;2022-11-23T10:54:33;32.45;;;4.43;;
34359;SDS011;20624;55.870;26.506;2022-11-23T10:57:19;32.15;;;4.57;;
34359;SDS011;20624;55.870;26.506;2022-11-23T11:02:25;50.42;;;6.80;;
34359;SDS011;20624;55.870;26.506;2022-11-23T11:05:12;21.30;;;3.15;;
34359;SDS011;20624;55.870;26.506;2022-11-23T11:08:17;31.92;;;4.32;;
34359;SDS011;20624;55.870;26.506;2022-11-23T11:13:50;36.53;;;5.25;;
34359;SDS011;20624;55.870;26.506;2022-11-23T11:16:47;35.90;;;5.05;;
34359;SDS011;20624;55.870;26.506;2022-11-23T11:19:21;23.25;;;3.22;;
34359;SDS011;20624;55.870;26.506;2022-11-23T11:21:53;21.08;;;3.22;;
34359;SDS011;20624;55.870;26.506;2022-11-23T11:24:43;21.48;;;3.08;;
34359;SDS011;20624;55.870;26.506;2022-11-23T11:27:13;45.45;;;6.13;;
34359;SDS011;20624;55.870;26.506;2022-11-23T11:32:20;53.45;;;7.25;;
34359;SDS011;20624;55.870;26.506;2022-11-23T11:35:00;26.05;;;3.40;;
34359;SDS011;20624;55.870;26.506;2022-11-23T11:37:47;46.65;;;6.30;;
34359;SDS011;20624;55.870;26.506;2022-11-23T11:43:00;53.17;;;7.32;;
34359;SDS011;20624;55.870;26.506;2022-11-23T11:45:54;31.50;;;4.28;;
34359;SDS011;20624;55.870;26.506;2022-11-23T11:48:44;61.42;;;8.45;;
34359;SDS011;20624;55.870;26.506;2022-11-23T11:51:37;45.13;;;6.20;;
34359;SDS011;20624;55.870;26.506;2022-11-23T11:57:10;100.80;;;13.63;;
34359;SDS011;20624;55.870;26.506;2022-11-23T12:10:57;52.38;;;7.15;;
34359;SDS011;20624;55.870;26.506;2022-11-23T12:13:34;57.65;;;7.82;;
34359;SDS011;20624;55.870;26.506;2022-11-23T12:16:25;39.35;;;5.22;;
34359;SDS011;20624;55.870;26.506;2022-11-23T12:19:29;55.25;;;7.63;;
34359;SDS011;20624;55.870;26.506;2022-11-23T12:30:18;52.65;;;6.88;;
34359;SDS011;20624;55.870;26.506;2022-11-23T12:45:13;90.65;;;11.73;;
34359;SDS011;20624;55.870;26.506;2022-11-23T12:52:43;32.83;;;4.38;;
34359;SDS011;20624;55.870;26.506;2022-11-23T12:55:48;43.42;;;5.55;;
34359;SDS011;20624;55.870;26.506;2022-11-23T12:58:38;36.85;;;5.03;;
34359;SDS011;20624;55.870;26.506;2022-11-23T13:01:25;63.55;;;8.55;;
34359;SDS011;20624;55.870;26.506;2022-11-23T13:10:04;38.97;;;5.32;;
34359;SDS011;20624;55.870;26.506;2022-11-23T13:12:42;32.42;;;4.57;;
34359;SDS011;20624;55.870;26.506;2022-11-23T13:21:39;66.10;;;8.68;;
34359;SDS011;20624;55.870;26.506;2022-11-23T13:24:32;37.72;;;5.15;;
34359;SDS011;20624;55.870;26.506;2022-11-23T13:29:50;45.15;;;6.10;;
34359;SDS011;20624;55.870;26.506;2022-11-23T13:40:42;30.55;;;4.53;;
34359;SDS011;20624;55.870;26.506;2022-11-23T13:43:28;23.10;;;3.25;;
34359;SDS011;20624;55.870;26.506;2022-11-23T13:48:57;23.42;;;3.25;;
34359;SDS011;20624;55.870;26.506;2022-11-23T13:51:30;32.50;;;4.43;;
34359;SDS011;20624;55.870;26.506;2022-11-23T13:54:02;25.88;;;3.55;;
34359;SDS011;20624;55.870;26.506;2022-11-23T13:57:00;34.63;;;4.82;;
34359;SDS011;20624;55.870;26.506;2022-11-23T13:59:30;39.30;;;5.25;;
34359;SDS011;20624;55.870;26.506;2022-11-23T14:04:29;30.67;;;4.18;;
34359;SDS011;20624;55.870;26.506;2022-11-23T14:07:02;27.73;;;3.85;;
34359;SDS011;20624;55.870;26.506;2022-11-23T14:09:53;27.70;;;3.75;;
34359;SDS011;20624;55.870;26.506;2022-11-23T14:20:31;50.92;;;7.22;;
34359;SDS011;20624;55.870;26.506;2022-11-23T14:26:06;38.45;;;5.05;;
34359;SDS011;20624;55.870;26.506;2022-11-23T14:42:21;40.60;;;5.45;;
34359;SDS011;20624;55.870;26.506;2022-11-23T14:44:50;31.27;;;4.30;;
34359;SDS011;20624;55.870;26.506;2022-11-23T14:47:26;40.40;;;5.50;;
34359;SDS011;20624;55.870;26.506;2022-11-23T14:49:57;32.70;;;4.53;;
34359;SDS011;20624;55.870;26.506;2022-11-23T14:52:30;37.67;;;5.32;;
34359;SDS011;20624;55.870;26.506;2022-11-23T14:55:00;51.53;;;7.00;;
34359;SDS011;20624;55.870;26.506;2022-11-23T14:57:40;29.08;;;4.10;;
34359;SDS011;20624;55.870;26.506;2022-11-23T15:02:59;26.95;;;3.58;;
34359;SDS011;20624;55.870;26.506;2022-11-23T15:05:54;32.45;;;4.38;;
34359;SDS011;20624;55.870;26.506;2022-11-23T15:08:27;39.03;;;5.20;;
34359;SDS011;20624;55.870;26.506;2022-11-23T15:11:09;21.75;;;3.13;;
34359;SDS011;20624;55.870;26.506;2022-11-23T15:13:42;37.30;;;4.97;;
34359;SDS011;20624;55.870;26.506;2022-11-23T15:16:14;43.17;;;5.80;;
34359;SDS011;20624;55.870;26.506;2022-11-23T15:18:43;25.67;;;3.65;;
34359;SDS011;20624;55.870;26.506;2022-11-23T15:23:53;20.55;;;3.13;;
34359;SDS011;20624;55.870;26.506;2022-11-23T15:26:25;18.80;;;2.80;;
34359;SDS011;20624;55.870;26.506;2022-11-23T15:29:35;24.17;;;3.45;;
34359;SDS011;20624;55.870;26.506;2022-11-23T15:32:19;23.77;;;3.28;;
34359;SDS011;20624;55.870;26.506;2022-11-23T15:35:00;20.92;;;2.95;;
34359;SDS011;20624;55.870;26.506;2022-11-23T15:37:35;18.00;;;2.83;;
34359;SDS011;20624;55.870;26.506;2022-11-23T15:40:13;14.85;;;2.15;;
34359;SDS011;20624;55.870;26.506;2022-11-23T15:42:44;10.75;;;1.77;;
34359;SDS011;20624;55.870;26.506;2022-11-23T15:48:04;3.88;;;0.75;;
34359;SDS011;20624;55.870;26.506;2022-11-23T15:53:27;12.43;;;1.98;;
34359;SDS011;20624;55.870;26.506;2022-11-23T15:56:10;9.35;;;1.67;;
34359;SDS011;20624;55.870;26.506;2022-11-23T15:58:45;13.77;;;2.22;;
34359;SDS011;20624;55.870;26.506;2022-11-23T16:03:52;10.82;;;1.55;;
34359;SDS011;20624;55.870;26.506;2022-11-23T16:06:36;11.32;;;1.70;;
34359;SDS011;20624;55.870;26.506;2022-11-23T16:12:26;19.52;;;2.72;;
34359;SDS011;20624;55.870;26.506;2022-11-23T16:14:55;8.35;;;1.58;;
34359;SDS011;20624;55.870;26.506;2022-11-23T16:17:27;9.65;;;1.70;;
34359;SDS011;20624;55.870;26.506;2022-11-23T16:19:56;5.60;;;1.23;;
34359;SDS011;20624;55.870;26.506;2022-11-23T16:22:40;12.32;;;1.90;;
34359;SDS011;20624;55.870;26.506;2022-11-23T16:28:00;16.63;;;2.65;;
34359;SDS011;20624;55.870;26.506;2022-11-23T16:30:36;1.95;;;0.70;;
34359;SDS011;20624;55.870;26.506;2022-11-23T16:33:08;7.70;;;1.30;;
34359;SDS011;20624;55.870;26.506;2022-11-23T16:35:40;7.57;;;1.27;;
34359;SDS011;20624;55.870;26.506;2022-11-23T16:38:09;9.30;;;1.60;;
34359;SDS011;20624;55.870;26.506;2022-11-23T16:40:38;11.27;;;1.67;;
34359;SDS011;20624;55.870;26.506;2022-11-23T16:43:06;12.48;;;1.83;;
34359;SDS011;20624;55.870;26.506;2022-11-23T16:45:36;8.35;;;1.45;;
34359;SDS011;20624;55.870;26.506;2022-11-23T16:48:21;12.43;;;2.28;;
34359;SDS011;20624;55.870;26.506;2022-11-23T16:51:02;18.63;;;2.70;;
34359;SDS011;20624;55.870;26.506;2022-11-23T16:53:29;8.07;;;1.35;;
34359;SDS011;20624;55.870;26.506;2022-11-23T16:56:19;7.60;;;1.73;;
34359;SDS011;20624;55.870;26.506;2022-11-23T16:58:49;6.78;;;1.30;;
34359;SDS011;20624;55.870;26.506;2022-11-23T17:01:25;7.80;;;1.27;;
34359;SDS011;20624;55.870;26.506;2022-11-23T17:03:53;4.00;;;0.93;;
34359;SDS011;20624;55.870;26.506;2022-11-23T17:06:20;15.45;;;2.35;;
34359;SDS011;20624;55.870;26.506;2022-11-23T17:11:31;7.50;;;1.23;;
34359;SDS011;20624;55.870;26.506;2022-11-23T17:14:01;17.17;;;2.55;;
34359;SDS011;20624;55.870;26.506;2022-11-23T17:16:29;4.75;;;1.02;;
34359;SDS011;20624;55.870;26.506;2022-11-23T17:18:59;3.13;;;0.85;;
34359;SDS011;20624;55.870;26.506;2022-11-23T17:21:27;14.68;;;2.22;;
34359;SDS011;20624;55.870;26.506;2022-11-23T17:23:55;6.80;;;1.30;;
34359;SDS011;20624;55.870;26.506;2022-11-23T17:28:59;5.55;;;1.05;;
34359;SDS011;20624;55.870;26.506;2022-11-23T17:31:29;8.27;;;1.40;;